Time;durP1;ratioP1;P1;durP2;ratioP2;P2;SDS_P1;SDS_P2;PMS_P1;PMS_P2;Temp;Humidity;BMP_temperature;BMP_pressure;BME280_temperature;BME280_humidity;BME280_pressure;Samples;Min_cycle;Max_cycle;Signal;HPM_P1;HPM_P2
2023/08/01 00:04:00;;;;;;;4.97;3.77;;;;;;;18.52;59.10;98781.13;10319396;28;20284;-69
2023/08/01 00:09:02;;;;;;;4.73;3.27;;;;;;;18.15;59.91;98757.56;10318786;28;20229;-69
2023/08/01 00:14:04;;;;;;;5.50;3.60;;;;;;;18.54;59.05;98722.94;10313477;28;20820;-71
2023/08/01 00:19:06;;;;;;;5.80;3.60;;;;;;;18.52;59.59;98683.63;10317835;28;20607;-68
2023/08/01 00:24:08;;;;;;;5.77;3.70;;;;;;;18.23;59.67;98686.69;10316805;28;20296;-69
2023/08/01 00:29:09;;;;;;;4.23;3.10;;;;;;;18.37;60.06;98665.41;10316185;28;20245;-69
2023/08/01 00:34:11;;;;;;;7.47;4.17;;;;;;;18.24;59.74;98713.50;10317152;28;20266;-69
2023/08/01 00:39:14;;;;;;;11.20;3.90;;;;;;;18.17;59.73;98695.84;10316026;28;20230;-69
2023/08/01 00:44:15;;;;;;;4.77;3.00;;;;;;;17.83;59.59;98778.19;10316041;28;20241;-69
2023/08/01 00:49:17;;;;;;;3.73;3.33;;;;;;;18.44;58.85;98720.97;10314573;28;20308;-69
2023/08/01 00:54:19;;;;;;;5.60;3.90;;;;;;;18.47;58.79;98708.78;10308812;28;20387;-69
2023/08/01 00:59:21;;;;;;;5.07;3.47;;;;;;;18.73;58.63;98657.44;10314344;28;20234;-69
2023/08/01 01:04:23;;;;;;;6.07;3.43;;;;;;;19.39;57.38;98633.16;10313223;28;20606;-68
2023/08/01 01:09:29;;;;;;;4.70;4.03;;;;;;;18.32;59.74;98687.03;10315070;28;20736;-69
2023/08/01 01:14:31;;;;;;;4.37;3.23;;;;;;;18.25;59.42;98707.03;10313859;28;20230;-69
2023/08/01 01:19:32;;;;;;;6.97;3.57;;;;;;;18.67;58.31;98672.03;10316077;28;20230;-69
2023/08/01 01:24:35;;;;;;;7.27;3.90;;;;;;;18.15;59.62;98709.66;10317558;28;20237;-69
2023/08/01 01:29:38;;;;;;;5.83;3.37;;;;;;;18.30;59.13;98672.97;10314632;28;20261;-70
2023/08/01 01:34:40;;;;;;;4.50;3.57;;;;;;;18.83;58.20;98619.53;10314434;28;20246;-69
2023/08/01 01:39:42;;;;;;;5.43;3.63;;;;;;;18.38;58.73;98665.16;10313631;28;20241;-69
2023/08/01 01:44:43;;;;;;;7.07;4.33;;;;;;;18.44;59.01;98615.34;10314044;28;20285;-69
2023/08/01 01:49:45;;;;;;;6.43;3.60;;;;;;;18.40;59.26;98595.28;10313708;28;20242;-69
2023/08/01 01:54:47;;;;;;;9.10;3.43;;;;;;;18.00;60.05;98637.31;10305556;28;20312;-69
2023/08/01 01:59:48;;;;;;;5.53;3.47;;;;;;;18.63;58.34;98593.19;10313134;28;20234;-69
2023/08/01 02:04:50;;;;;;;7.13;4.07;;;;;;;18.00;60.01;98602.13;10308285;28;20321;-72
2023/08/01 02:09:52;;;;;;;4.17;3.07;;;;;;;17.58;60.69;98645.34;10314953;28;20242;-68
2023/08/01 02:14:54;;;;;;;6.17;4.07;;;;;;;18.12;59.52;98614.63;10311466;28;20705;-69
2023/08/01 02:19:55;;;;;;;4.67;3.27;;;;;;;18.40;58.64;98625.06;10312940;28;20237;-69
2023/08/01 02:24:57;;;;;;;5.47;3.13;;;;;;;18.30;59.50;98591.72;10310225;28;20253;-69
2023/08/01 02:29:59;;;;;;;5.47;3.43;;;;;;;17.90;60.11;98621.00;10313804;28;20233;-69
2023/08/01 02:35:01;;;;;;;6.00;3.10;;;;;;;18.67;58.44;98583.44;10318347;28;20226;-69
2023/08/01 02:40:07;;;;;;;4.53;3.87;;;;;;;18.04;59.34;98635.69;10315486;28;20233;-69
2023/08/01 02:45:09;;;;;;;7.43;3.87;;;;;;;18.46;59.03;98591.50;10312985;28;20234;-69
2023/08/01 02:50:10;;;;;;;6.43;3.87;;;;;;;17.18;61.01;98667.19;10308920;28;20237;-69
2023/08/01 02:55:12;;;;;;;4.53;3.40;;;;;;;18.48;59.19;98566.06;10311436;28;20237;-69
2023/08/01 03:00:14;;;;;;;4.47;3.60;;;;;;;17.82;60.00;98635.84;10302443;28;20249;-69
2023/08/01 03:05:16;;;;;;;5.03;3.70;;;;;;;18.76;58.32;98579.13;10312120;28;20229;-69
2023/08/01 03:10:18;;;;;;;9.90;3.80;;;;;;;17.81;59.81;98630.69;10307480;28;20345;-70
2023/08/01 03:15:37;;;;;;;4.43;3.30;;;;;;;18.02;60.48;98529.59;10310201;28;20243;-70
2023/08/01 03:20:39;;;;;;;7.17;3.93;;;;;;;17.96;60.18;98538.75;10313100;28;20259;-69
2023/08/01 03:25:41;;;;;;;9.20;3.90;;;;;;;17.87;60.51;98507.88;10311874;28;20276;-69
2023/08/01 03:30:43;;;;;;;6.20;3.63;;;;;;;18.18;60.34;98476.31;10312131;28;20234;-70
2023/08/01 03:35:44;;;;;;;5.63;3.77;;;;;;;18.13;58.93;98564.81;10312815;28;20637;-69
2023/08/01 03:40:46;;;;;;;6.67;4.10;;;;;;;18.82;57.99;98517.63;10316234;28;20249;-70
2023/08/01 03:45:48;;;;;;;6.03;3.60;;;;;;;18.30;58.36;98591.72;10313107;28;20788;-69
2023/08/01 03:50:50;;;;;;;4.63;4.07;;;;;;;19.12;56.82;98537.72;10311636;28;20614;-70
2023/08/01 03:55:51;;;;;;;4.83;3.27;;;;;;;18.72;56.57;98613.25;10312112;28;20230;-69
2023/08/01 04:00:53;;;;;;;9.13;3.53;;;;;;;20.25;54.95;98491.34;10310365;28;20264;-70
2023/08/01 04:05:55;;;;;;;7.97;3.93;;;;;;;18.15;59.25;98558.06;10312047;28;20233;-70
2023/08/01 04:10:57;;;;;;;4.63;3.23;;;;;;;18.66;57.55;98608.94;10309282;28;20332;-70
2023/08/01 04:15:59;;;;;;;4.60;3.47;;;;;;;18.09;59.18;98621.38;10341512;28;20471;-70
2023/08/01 04:21:02;;;;;;;5.40;4.07;;;;;;;19.19;56.34;98555.34;10315981;28;20228;-71
2023/08/01 04:26:05;;;;;;;8.63;3.73;;;;;;;18.64;57.39;98563.13;10316978;28;20238;-70
2023/08/01 04:31:07;;;;;;;5.63;3.87;;;;;;;18.00;58.62;98576.94;10316558;28;20234;-71
2023/08/01 04:36:09;;;;;;;6.80;3.63;;;;;;;18.06;58.62;98600.25;10316983;28;20290;-70
2023/08/01 04:41:11;;;;;;;5.37;3.60;;;;;;;18.16;58.48;98588.66;10315939;28;20949;-70
2023/08/01 04:46:13;;;;;;;7.20;3.90;;;;;;;18.12;59.23;98530.69;10314485;28;20234;-70
2023/08/01 04:51:16;;;;;;;5.10;3.33;;;;;;;17.65;60.46;98500.75;10317990;28;20622;-70
2023/08/01 04:56:17;;;;;;;4.27;3.00;;;;;;;17.82;59.17;98507.88;10316368;28;20237;-70
2023/08/01 05:01:19;;;;;;;5.17;3.50;;;;;;;17.72;59.54;98504.03;10314098;28;20242;-70
2023/08/01 05:06:21;;;;;;;4.53;3.33;;;;;;;17.84;58.40;98535.47;10312374;28;20238;-70
2023/08/01 05:11:23;;;;;;;5.07;3.40;;;;;;;17.83;58.32;98541.94;10315473;28;20669;-69
2023/08/01 05:16:24;;;;;;;4.53;3.30;;;;;;;18.44;58.27;98457.47;10311535;28;20329;-70
2023/08/01 05:21:26;;;;;;;5.57;3.57;;;;;;;19.21;56.30;98503.53;10314500;28;20234;-70
2023/08/01 05:26:28;;;;;;;7.80;3.73;;;;;;;17.98;59.38;98523.06;10315570;28;20308;-69
2023/08/01 05:31:30;;;;;;;4.97;3.70;;;;;;;17.58;59.07;98575.03;10312453;28;20308;-70
2023/08/01 05:36:32;;;;;;;4.27;3.47;;;;;;;17.52;59.53;98529.03;10293091;23;20715;-37
2023/08/01 05:41:34;;;;;;;5.67;3.80;;;;;;;17.20;60.24;98577.75;10268583;28;20297;-37
2023/08/01 05:46:36;;;;;;;5.30;3.43;;;;;;;17.14;60.25;98576.88;10268065;28;20321;-37
2023/08/01 05:51:38;;;;;;;5.63;3.33;;;;;;;17.53;60.25;98535.28;10267649;28;20383;-38
2023/08/01 05:56:39;;;;;;;4.77;3.37;;;;;;;17.48;60.82;98509.00;10266568;28;20258;-37
2023/08/01 06:01:43;;;;;;;9.20;4.00;;;;;;;17.20;62.04;98499.34;10270623;28;20246;-38
2023/08/01 06:06:45;;;;;;;5.13;3.70;;;;;;;17.67;60.33;98514.00;10265194;28;20249;-37
2023/08/01 06:11:46;;;;;;;5.97;4.00;;;;;;;17.32;61.26;98548.63;10267511;28;20230;-38
2023/08/01 06:16:48;;;;;;;6.70;4.10;;;;;;;17.21;61.69;98516.38;10266909;28;20238;-37
2023/08/01 06:21:50;;;;;;;6.87;3.83;;;;;;;17.27;61.78;98491.81;10265587;28;20230;-37
2023/08/01 06:26:52;;;;;;;5.50;4.20;;;;;;;17.63;60.66;98499.38;10266873;28;20250;-38
2023/08/01 06:31:54;;;;;;;7.43;4.20;;;;;;;17.54;61.04;98524.19;10268703;28;20282;-39
2023/08/01 06:36:56;;;;;;;5.73;3.60;;;;;;;17.76;60.82;98460.22;10265390;28;20242;-38
2023/08/01 06:41:58;;;;;;;6.20;4.30;;;;;;;17.55;61.53;98481.72;10266230;28;20742;-37
2023/08/01 06:47:00;;;;;;;8.00;4.80;;;;;;;18.35;59.04;98486.13;10265587;28;20239;-37
2023/08/01 06:52:02;;;;;;;5.40;4.23;;;;;;;17.19;61.50;98551.78;10266063;28;20226;-37
2023/08/01 06:57:04;;;;;;;6.73;4.20;;;;;;;16.98;62.65;98530.00;10265288;28;20565;-37
2023/08/01 07:02:07;;;;;;;6.97;4.33;;;;;;;18.05;60.66;98458.69;10265841;28;20261;-37
2023/08/01 07:07:08;;;;;;;8.60;4.73;;;;;;;18.40;59.84;98470.69;10266849;28;20239;-37
2023/08/01 07:12:11;;;;;;;7.00;4.30;;;;;;;17.18;62.15;98550.16;10263580;28;20237;-37
2023/08/01 07:17:13;;;;;;;6.60;4.23;;;;;;;17.10;62.73;98529.00;10261364;28;20234;-37
2023/08/01 07:22:15;;;;;;;6.37;4.67;;;;;;;17.44;62.05;98520.59;10261978;28;20226;-37
2023/08/01 07:27:17;;;;;;;6.20;3.97;;;;;;;16.87;63.46;98555.28;10260617;28;20238;-37
2023/08/01 07:32:18;;;;;;;5.13;3.80;;;;;;;17.58;62.35;98499.31;10264626;28;20265;-37
2023/08/01 07:37:20;;;;;;;6.03;3.83;;;;;;;17.99;61.73;98480.59;10264387;28;20234;-37
2023/08/01 07:42:23;;;;;;;7.43;4.00;;;;;;;17.56;62.32;98526.63;10263314;28;20605;-37
2023/08/01 07:47:24;;;;;;;3.40;3.00;;;;;;;17.26;62.98;98522.66;10303518;28;20714;-37
2023/08/01 07:52:26;;;;;;;5.07;3.43;;;;;;;17.01;63.72;98541.38;10314555;28;20234;-37
2023/08/01 07:57:28;;;;;;;6.43;3.20;;;;;;;17.45;62.79;98516.81;10292035;28;20373;-37
2023/08/01 08:02:30;;;;;;;6.07;3.50;;;;;;;18.10;62.01;98488.50;10290538;28;20312;-37
2023/08/01 08:07:31;;;;;;;3.50;2.90;;;;;;;18.38;60.52;98546.00;10305837;28;20770;-37
2023/08/01 08:18:56;;;;;;;4.17;3.33;;;;;;;17.97;62.30;98559.34;10295779;28;20252;-37
2023/08/01 08:23:58;;;;;;;4.70;2.87;;;;;;;17.75;63.16;98564.09;10271774;28;20230;-37
2023/08/01 08:29:00;;;;;;;6.10;3.70;;;;;;;17.78;62.74;98591.44;10273148;28;20309;-37
2023/08/01 08:34:01;;;;;;;4.27;2.80;;;;;;;18.20;61.20;98587.88;10267960;28;20234;-37
2023/08/01 08:39:04;;;;;;;2.23;2.07;;;;;;;18.49;60.10;98592.88;10269722;28;20206;-37
2023/08/01 08:44:08;;;;;;;1.97;1.87;;;;;;;18.22;60.12;98652.56;10271313;28;20230;-37
2023/08/01 08:49:11;;;;;;;2.20;2.10;;;;;;;19.48;58.09;98597.38;10271113;28;20231;-37
2023/08/01 08:54:15;;;;;;;1.90;1.80;;;;;;;17.78;60.58;98655.56;10272002;28;20226;-37
2023/08/01 08:59:18;;;;;;;3.70;3.40;;;;;;;18.70;58.95;98628.16;10270898;28;20346;-37
2023/08/01 09:10:42;;;;;;;1.80;1.70;;;;;;;18.89;57.26;98609.50;10269243;28;20475;-37
2023/08/01 09:15:46;;;;;;;1.60;1.50;;;;;;;18.85;56.58;98655.31;10267953;28;20229;-37
2023/08/01 09:20:49;;;;;;;2.20;1.40;;;;;;;19.15;56.32;98678.19;10269491;28;20246;-37
2023/08/01 09:25:51;;;;;;;1.50;1.40;;;;;;;19.27;56.66;98651.63;10267696;28;20234;-37
2023/08/01 09:30:57;;;;;;;1.55;1.45;;;;;;;19.32;55.90;98659.75;10272064;28;20241;-37
2023/08/01 09:36:00;;;;;;;1.50;1.40;;;;;;;20.24;54.29;98642.59;10270018;28;20235;-37
2023/08/01 09:41:03;;;;;;;3.47;2.23;;;;;;;18.50;55.48;98694.72;10268963;28;20285;-37
2023/08/01 09:46:06;;;;;;;2.30;1.70;;;;;;;18.95;53.66;98744.00;10267368;28;20254;-37
2023/08/01 09:51:14;;;;;;;1.87;1.20;;;;;;;20.12;52.11;98640.16;10268181;28;20700;-37
2023/08/01 09:56:20;;;;;;;2.97;1.50;;;;;;;20.36;50.59;98680.31;10270526;28;20716;-37
2023/08/01 10:01:23;;;;;;;1.70;1.60;;;;;;;20.92;49.64;98676.59;10267493;28;20678;-36
2023/08/01 10:06:32;;;;;;;1.85;1.73;;;;;;;20.25;49.22;98697.75;10280832;28;20803;-36
2023/08/01 10:11:34;;;;;;;2.50;1.60;;;;;;;19.93;48.84;98751.25;10267700;28;20234;-36
2023/08/01 10:16:36;;;;;;;1.63;1.53;;;;;;;20.85;48.68;98693.22;10267650;28;20249;-36
2023/08/01 10:21:41;;;;;;;1.63;1.52;;;;;;;20.30;48.95;98731.13;10268423;28;20253;-37
2023/08/01 10:26:46;;;;;;;2.08;1.60;;;;;;;19.80;48.43;98721.13;10266247;28;21385;-36
2023/08/01 11:45:56;;;;;;;3.20;1.83;;;;;;;18.72;47.26;98731.66;10476982;27;2045741;-74
2023/08/01 12:54:38;;;;;;;1.30;1.25;;;;;;;19.71;43.78;98697.22;10522216;27;20237;-69
2023/08/01 12:59:40;;;;;;;2.28;1.60;;;;;;;20.61;43.44;98595.16;10547189;27;20766;-69
2023/08/01 13:04:42;;;;;;;2.38;1.60;;;;;;;20.79;42.56;98606.53;10550681;27;20310;-73
2023/08/01 13:09:43;;;;;;;2.00;1.80;;;;;;;20.46;44.12;98655.84;10546757;28;20337;-73
2023/08/01 13:14:45;;;;;;;1.85;1.50;;;;;;;19.90;44.38;98607.09;10536802;27;20249;-72
2023/08/01 13:19:47;;;;;;;1.77;1.48;;;;;;;20.60;43.50;98599.00;10540685;28;20291;-72
2023/08/01 13:24:49;;;;;;;2.95;1.95;;;;;;;22.33;42.31;98553.38;10542320;28;20226;-72
2023/08/01 13:29:51;;;;;;;1.52;1.40;;;;;;;21.61;42.15;98573.28;10540784;27;20230;-71
2023/08/01 13:34:53;;;;;;;1.67;1.50;;;;;;;19.72;42.26;98606.59;10535158;28;20308;-70
2023/08/01 13:39:57;;;;;;;1.88;1.60;;;;;;;20.65;42.18;98598.16;10538537;27;20630;-71
2023/08/01 13:44:59;;;;;;;2.80;1.50;;;;;;;22.31;40.96;98559.13;10541053;27;20233;-71
2023/08/01 13:50:01;;;;;;;1.95;1.65;;;;;;;20.94;41.85;98586.59;10541816;27;20260;-71
2023/08/01 13:55:04;;;;;;;1.60;1.50;;;;;;;22.22;40.31;98568.22;10538698;28;20275;-72
2023/08/01 14:00:07;;;;;;;2.40;1.60;;;;;;;21.23;40.33;98632.88;10540511;27;20573;-72
2023/08/01 14:05:14;;;;;;;3.42;2.15;;;;;;;21.56;41.25;98562.41;10538931;27;20245;-72
2023/08/01 14:10:15;;;;;;;4.13;1.73;;;;;;;21.39;40.68;98619.97;10537074;28;20241;-71
2023/08/01 14:15:17;;;;;;;2.80;1.70;;;;;;;22.26;40.32;98586.44;10540396;27;20245;-72
2023/08/01 14:20:19;;;;;;;2.25;1.75;;;;;;;21.95;41.03;98578.63;10536862;27;20814;-73
2023/08/01 14:25:21;;;;;;;2.10;1.42;;;;;;;21.58;41.59;98603.78;10538745;27;20237;-72
2023/08/01 14:30:23;;;;;;;2.25;1.70;;;;;;;21.57;42.49;98561.31;10516028;28;20222;-73
2023/08/01 14:35:25;;;;;;;2.75;2.30;;;;;;;22.26;41.55;98599.25;10541124;27;20234;-74
2023/08/01 14:40:27;;;;;;;2.67;1.70;;;;;;;21.37;42.13;98628.44;10534305;28;20732;-74
2023/08/01 14:45:28;;;;;;;3.60;1.70;;;;;;;22.99;41.18;98529.00;10539540;28;20319;-74
2023/08/01 14:50:30;;;;;;;2.15;1.50;;;;;;;22.25;41.65;98575.81;10535373;28;20321;-72
2023/08/01 14:55:32;;;;;;;2.05;1.67;;;;;;;22.69;41.70;98518.28;10541126;27;20307;-73
2023/08/01 15:00:37;;;;;;;2.30;1.60;;;;;;;21.50;40.91;98601.66;10534290;28;20234;-69
2023/08/01 15:05:38;;;;;;;2.40;1.55;;;;;;;21.89;39.77;98606.97;10537742;28;20349;-70
2023/08/01 15:10:40;;;;;;;1.80;1.70;;;;;;;21.43;40.82;98610.16;10529929;28;20229;-68
2023/08/01 15:15:42;;;;;;;1.65;1.42;;;;;;;22.07;39.98;98561.88;10535321;28;20665;-68
2023/08/01 15:20:44;;;;;;;2.35;1.65;;;;;;;21.61;39.82;98614.09;10533835;28;20311;-68
2023/08/01 15:25:57;;;;;;;3.97;2.60;;;;;;;21.62;39.90;98617.63;10533712;28;20233;-68
2023/08/01 15:31:07;;;;;;;2.03;1.83;;;;;;;21.73;40.11;98628.13;10535108;28;20238;-70
2023/08/01 15:36:09;;;;;;;1.77;1.65;;;;;;;21.79;40.24;98572.50;10532053;28;20311;-69
2023/08/01 15:41:11;;;;;;;2.30;1.75;;;;;;;21.66;40.89;98561.50;10537756;28;20279;-68
2023/08/01 15:46:12;;;;;;;2.72;1.90;;;;;;;22.06;40.27;98527.56;10536729;28;20246;-69
2023/08/01 15:51:14;;;;;;;2.72;1.90;;;;;;;21.75;40.74;98565.22;10543744;28;20242;-70
2023/08/01 15:56:16;;;;;;;3.25;1.80;;;;;;;22.34;40.09;98564.00;10532988;28;20256;-71
2023/08/01 16:01:18;;;;;;;1.65;1.52;;;;;;;21.17;40.31;98595.91;10552140;27;20241;-70
2023/08/01 16:06:20;;;;;;;2.25;2.05;;;;;;;22.27;38.97;98509.06;10544655;27;20394;-69
2023/08/01 16:11:22;;;;;;;1.63;1.50;;;;;;;21.09;40.65;98551.13;10544643;27;20580;-68
2023/08/01 16:16:23;;;;;;;5.25;2.03;;;;;;;20.91;41.06;98603.47;10546259;27;20230;-68
2023/08/01 16:21:25;;;;;;;2.15;1.83;;;;;;;22.83;39.58;98515.63;10541450;28;20237;-68
2023/08/01 16:26:27;;;;;;;1.70;1.60;;;;;;;21.68;40.71;98597.41;10544209;28;20651;-68
2023/08/01 16:31:29;;;;;;;2.47;1.70;;;;;;;22.49;39.68;98538.44;10544582;27;20225;-69
2023/08/01 16:36:30;;;;;;;1.55;1.40;;;;;;;22.03;40.07;98590.81;10524208;28;20656;-69
2023/08/01 16:41:34;;;;;;;2.88;1.70;;;;;;;22.07;39.69;98518.31;10544672;27;20222;-68
2023/08/01 16:46:35;;;;;;;1.98;1.60;;;;;;;21.69;40.20;98588.94;10547252;27;20238;-68
2023/08/01 16:51:37;;;;;;;3.17;1.50;;;;;;;21.93;39.69;98525.53;10547815;27;20243;-68
2023/08/01 16:56:39;;;;;;;1.67;1.58;;;;;;;21.73;40.00;98541.00;10544096;28;20253;-67
2023/08/01 17:01:41;;;;;;;2.15;1.75;;;;;;;20.69;41.07;98583.69;10511524;27;20821;-68
2023/08/01 17:06:43;;;;;;;1.70;1.60;;;;;;;21.41;40.47;98563.38;10538289;28;20238;-68
2023/08/01 17:11:45;;;;;;;2.90;2.00;;;;;;;21.39;40.37;98582.72;10529226;28;20325;-67
2023/08/01 17:16:47;;;;;;;3.15;1.90;;;;;;;21.49;40.88;98567.38;10540373;28;20245;-69
2023/08/01 17:21:49;;;;;;;5.10;2.50;;;;;;;19.99;42.32;98616.31;10537311;28;20234;-68
2023/08/01 17:26:51;;;;;;;2.67;1.90;;;;;;;21.56;40.90;98516.13;10535400;27;20236;-66
2023/08/01 17:31:52;;;;;;;2.50;1.73;;;;;;;20.68;41.46;98595.69;10532678;27;20238;-67
2023/08/01 17:36:55;;;;;;;2.25;1.60;;;;;;;20.48;41.47;98583.03;10533165;28;20317;-69
2023/08/01 17:41:57;;;;;;;2.90;1.90;;;;;;;21.59;40.15;98535.44;10538424;28;20849;-66
2023/08/01 17:46:59;;;;;;;2.85;1.80;;;;;;;21.27;40.44;98557.75;10534602;28;20237;-68
2023/08/01 17:52:01;;;;;;;2.90;1.60;;;;;;;20.81;41.31;98575.22;10531489;28;20638;-67
2023/08/01 17:57:04;;;;;;;2.90;1.60;;;;;;;21.11;41.00;98573.41;10544734;28;20226;-68
2023/08/01 18:02:06;;;;;;;3.78;1.80;;;;;;;20.47;41.22;98634.91;10550533;27;20317;-69
2023/08/01 18:07:08;;;;;;;1.65;1.52;;;;;;;20.54;41.52;98602.00;10546962;28;21233;-69
2023/08/01 18:12:10;;;;;;;3.53;1.90;;;;;;;20.30;42.31;98534.75;10540924;27;20238;-68
2023/08/01 18:17:12;;;;;;;2.17;1.90;;;;;;;20.15;42.06;98622.50;10534571;27;20720;-68
2023/08/01 18:22:14;;;;;;;2.42;1.80;;;;;;;20.11;41.93;98678.47;10537259;28;20230;-68
2023/08/01 18:27:16;;;;;;;2.58;1.65;;;;;;;19.71;42.48;98655.72;10535941;28;20242;-69
2023/08/01 18:32:18;;;;;;;2.83;1.90;;;;;;;20.24;42.28;98607.28;10536013;28;20235;-70
2023/08/01 18:37:19;;;;;;;4.18;2.15;;;;;;;20.14;41.81;98677.91;10534768;27;20731;-66
2023/08/01 18:42:22;;;;;;;4.18;2.05;;;;;;;20.78;41.26;98678.28;10536588;28;20769;-68
2023/08/01 18:47:24;;;;;;;2.58;1.98;;;;;;;21.18;41.83;98614.66;10533380;27;20230;-68
2023/08/01 18:52:29;;;;;;;4.25;1.70;;;;;;;21.18;41.28;98611.94;10539017;28;20723;-68
2023/08/01 18:57:31;;;;;;;2.38;2.08;;;;;;;21.15;41.27;98677.00;10538093;28;20794;-67
2023/08/01 19:07:56;;;;;;;3.60;2.03;;;;;;;20.92;42.03;98697.50;10389243;28;20232;-40
2023/08/01 19:12:58;;;;;;;5.82;2.30;;;;;;;20.95;41.86;98680.63;10376643;28;20264;-40
2023/08/01 19:17:59;;;;;;;3.95;2.10;;;;;;;20.64;42.26;98683.47;10366529;28;20228;-41
2023/08/01 19:23:01;;;;;;;2.70;2.00;;;;;;;20.99;42.46;98655.34;10341252;28;20237;-41
2023/08/01 19:28:03;;;;;;;2.88;1.88;;;;;;;20.44;42.47;98746.88;10355983;28;20649;-40
2023/08/01 19:33:05;;;;;;;4.63;2.00;;;;;;;20.45;43.03;98708.56;10349591;28;20906;-41
2023/08/01 19:38:08;;;;;;;2.67;2.20;;;;;;;21.45;41.45;98735.84;10355399;28;20244;-41
2023/08/01 19:43:11;;;;;;;3.17;2.03;;;;;;;21.01;42.18;98718.41;10353074;28;20225;-40
2023/08/01 19:48:13;;;;;;;5.80;2.10;;;;;;;19.77;43.85;98736.03;10335043;28;20300;-41
2023/08/01 19:53:15;;;;;;;6.95;2.55;;;;;;;19.81;43.67;98772.41;10325334;28;20266;-41
2023/08/01 19:58:16;;;;;;;3.30;2.13;;;;;;;20.05;43.88;98736.56;10335919;28;20230;-41
2023/08/01 20:03:21;;;;;;;2.85;2.05;;;;;;;19.52;43.92;98791.88;10320629;28;20728;-40
2023/08/01 20:08:24;;;;;;;4.22;1.90;;;;;;;20.65;42.53;98698.72;10356832;28;21900;-40
2023/08/01 20:13:28;;;;;;;2.38;2.00;;;;;;;19.72;43.85;98736.88;10357829;28;20885;-40
2023/08/01 20:18:30;;;;;;;4.55;2.13;;;;;;;19.29;44.79;98722.66;10357750;28;20228;-40
2023/08/01 20:23:32;;;;;;;3.33;2.10;;;;;;;20.13;43.63;98676.28;10366433;28;20236;-40
2023/08/01 20:28:34;;;;;;;4.07;2.10;;;;;;;19.56;44.46;98717.03;10364390;28;20241;-41
2023/08/01 20:33:35;;;;;;;3.58;1.98;;;;;;;18.14;45.68;98818.22;10374145;28;20233;-40
2023/08/01 20:38:37;;;;;;;3.25;2.10;;;;;;;19.07;44.91;98739.16;10365013;28;20630;-40
2023/08/01 20:43:39;;;;;;;4.57;2.47;;;;;;;18.42;45.47;98807.09;10361181;28;20229;-39
2023/08/01 20:48:41;;;;;;;3.28;2.00;;;;;;;19.20;45.12;98703.41;10364688;28;20218;-39
2023/08/01 20:53:43;;;;;;;3.10;2.10;;;;;;;18.22;46.51;98758.16;10366761;28;20744;-40
2023/08/01 20:58:45;;;;;;;3.22;2.20;;;;;;;18.61;46.47;98709.94;10364722;28;20232;-40
2023/08/01 21:03:46;;;;;;;3.05;2.03;;;;;;;18.36;46.60;98743.13;10364130;28;20240;-40
2023/08/01 21:08:48;;;;;;;5.25;2.35;;;;;;;18.31;46.61;98726.84;10357678;28;20229;-41
2023/08/01 21:14:05;;;;;;;1.88;1.75;;;;;;;18.28;47.19;98687.56;10363567;28;20636;-40
2023/08/01 21:19:07;;;;;;;3.80;2.10;;;;;;;18.52;46.78;98689.03;10365198;28;20249;-40
2023/08/01 21:24:09;;;;;;;3.20;2.10;;;;;;;18.23;47.46;98681.28;10369025;28;20721;-40
2023/08/01 21:29:11;;;;;;;2.50;1.80;;;;;;;18.69;46.74;98681.53;10360043;28;20274;-40
2023/08/01 21:34:13;;;;;;;16.70;2.38;;;;;;;18.89;46.16;98693.53;10366880;28;20323;-40
2023/08/01 21:39:15;;;;;;;2.80;2.00;;;;;;;18.74;46.64;98688.84;10364291;28;20229;-40
2023/08/01 21:44:17;;;;;;;3.60;1.92;;;;;;;17.86;47.42;98801.19;10365148;28;20254;-40
2023/08/01 21:49:18;;;;;;;2.47;2.28;;;;;;;18.98;46.35;98706.31;10363069;28;20214;-40
2023/08/01 21:54:20;;;;;;;3.88;2.30;;;;;;;18.68;47.12;98714.31;10362863;28;20229;-41
2023/08/01 21:59:22;;;;;;;3.10;1.98;;;;;;;18.12;47.31;98788.69;10364796;28;20225;-39
2023/08/01 22:04:24;;;;;;;2.15;1.92;;;;;;;17.70;48.11;98779.41;10361840;28;20321;-40
2023/08/01 22:09:26;;;;;;;3.33;2.03;;;;;;;18.59;46.96;98681.47;10362868;28;20236;-41
2023/08/01 22:14:28;;;;;;;5.63;1.80;;;;;;;18.10;47.47;98758.34;10363313;28;20225;-41
2023/08/01 22:19:30;;;;;;;2.50;1.80;;;;;;;18.81;46.91;98708.38;10362962;28;20320;-40
2023/08/01 22:24:32;;;;;;;6.30;2.30;;;;;;;18.69;46.50;98749.25;10364277;28;20229;-40
2023/08/01 22:29:34;;;;;;;2.72;2.03;;;;;;;18.45;46.85;98778.66;10353805;28;20252;-40
2023/08/01 22:34:36;;;;;;;3.95;1.70;;;;;;;18.35;46.93;98792.94;10364939;28;20769;-40
2023/08/01 22:39:38;;;;;;;2.13;1.80;;;;;;;16.75;49.69;98843.63;10361240;28;20729;-40
2023/08/01 22:44:39;;;;;;;3.90;2.07;;;;;;;18.40;47.50;98717.16;10361963;28;20233;-40
2023/08/01 22:49:41;;;;;;;2.93;1.90;;;;;;;18.08;48.81;98682.84;10365481;28;20226;-40
2023/08/01 22:55:05;;;;;;;2.60;1.90;;;;;;;17.52;49.07;98772.44;10356930;28;20229;-40
2023/08/01 23:00:08;;;;;;;2.93;2.10;;;;;;;17.43;49.11;98773.16;10363192;28;20228;-40
2023/08/01 23:05:11;;;;;;;2.10;1.90;;;;;;;18.33;47.94;98711.16;10357902;28;20726;-40
2023/08/01 23:10:13;;;;;;;3.38;2.08;;;;;;;17.97;48.23;98775.06;10363292;28;20228;-40
2023/08/01 23:15:14;;;;;;;4.57;2.30;;;;;;;18.43;47.67;98732.88;10359762;28;20232;-40
2023/08/01 23:20:16;;;;;;;4.30;2.00;;;;;;;18.87;47.27;98691.06;10350349;28;20244;-40
2023/08/01 23:25:18;;;;;;;3.20;2.00;;;;;;;18.89;47.13;98721.44;10363748;28;20584;-40
2023/08/01 23:30:20;;;;;;;2.53;1.97;;;;;;;18.63;47.27;98745.72;10361634;28;20229;-40
2023/08/01 23:35:23;;;;;;;3.90;1.87;;;;;;;18.10;48.13;98775.44;10365363;28;20224;-39
2023/08/01 23:40:27;;;;;;;2.20;2.00;;;;;;;17.84;48.78;98750.03;10357635;28;20706;-40
2023/08/01 23:45:29;;;;;;;6.03;2.00;;;;;;;18.06;48.72;98724.75;10364408;28;20408;-40
2023/08/01 23:50:31;;;;;;;2.70;2.20;;;;;;;18.07;48.72;98731.81;10360205;28;20229;-49
2023/08/01 23:55:33;;;;;;;2.20;2.00;;;;;;;18.18;48.58;98736.22;10362126;28;20233;-40
